Grafton, Illinois
Current Conditions -  °F | °C
As of 1:54 PM on Friday 28 Nov 2014 (Local Time) from KSET Reporting Station
Clear Clear  
Wind Chill: 50°   Ceiling: Unl
Heat Index: 50°   Visibility: 10mi
Dew Point: 35°   Wind: 13mph
Humidity: 57%   Direction: 170°S
Pressure: 29.97"   Gusts: NA
Location:  38.97°N, 90.43°W
Report Text: KSET 281954Z AUTO 17011KT 10SM CLR 10/02 A2997 RMK AO2 SLP151 T01000017
Loading
Personal Weather Stations






























Interactive Weather Map New forecast layout! Learn more

10-Day Weather Forecast

Advertisements
Track Severe Weather on mobile